Hacksneck, Virginia
Current Conditions -  °F | °C
As of 12:55 PM on Saturday 25 Oct 2014 (Local Time) from KMFV Reporting Station
Clear Clear  
Wind Chill: 66°   Ceiling: Unl
Heat Index: 66°   Visibility: 10mi
Dew Point: 43°   Wind: 7mph
Humidity: 43%   Direction: 290°WNW
Pressure: 29.92"   Gusts: NA
Location:  37.65°N, 75.87°W
Report Text: KMFV 251655Z AUTO 29006KT 10SM CLR 19/06 A2992 RMK AO2
Loading
Personal Weather Stations






























Interactive Weather Map
Tropical Storm Tracking
New forecast layout! Learn more

10-Day Weather Forecast

Advertisements
Track Severe Weather on mobile